sensor_id;sensor_type;location;lat;lon;timestamp;P1;durP1;ratioP1;P2;durP2;ratioP2
49241;SDS011;35079;52.704;13.814;2022-08-02T00:02:23;5.00;;;2.95;;
49241;SDS011;35079;52.704;13.814;2022-08-02T00:04:49;4.50;;;2.90;;
49241;SDS011;35079;52.704;13.814;2022-08-02T00:07:15;4.00;;;3.13;;
49241;SDS011;35079;52.704;13.814;2022-08-02T00:09:41;4.50;;;2.90;;
49241;SDS011;35079;52.704;13.814;2022-08-02T00:12:08;5.60;;;3.10;;
49241;SDS011;35079;52.704;13.814;2022-08-02T00:14:34;6.35;;;2.97;;
49241;SDS011;35079;52.704;13.814;2022-08-02T00:17:03;4.93;;;2.90;;
49241;SDS011;35079;52.704;13.814;2022-08-02T00:46:55;5.00;;;3.17;;
49241;SDS011;35079;52.704;13.814;2022-08-02T02:11:23;4.45;;;2.92;;
49241;SDS011;35079;52.704;13.814;2022-08-02T02:14:10;5.50;;;3.45;;
49241;SDS011;35079;52.704;13.814;2022-08-02T02:17:13;5.85;;;3.28;;
49241;SDS011;35079;52.704;13.814;2022-08-02T03:34:50;3.17;;;2.85;;
49241;SDS011;35079;52.704;13.814;2022-08-02T04:45:23;4.35;;;3.17;;
49241;SDS011;35079;52.704;13.814;2022-08-02T04:47:49;3.33;;;2.88;;
49241;SDS011;35079;52.704;13.814;2022-08-02T04:50:15;6.95;;;3.05;;
49241;SDS011;35079;52.704;13.814;2022-08-02T04:52:41;4.63;;;2.92;;
49241;SDS011;35079;52.704;13.814;2022-08-02T04:55:09;5.00;;;3.95;;
49241;SDS011;35079;52.704;13.814;2022-08-02T04:57:35;3.95;;;3.50;;
49241;SDS011;35079;52.704;13.814;2022-08-02T05:00:19;8.38;;;3.67;;
49241;SDS011;35079;52.704;13.814;2022-08-02T05:02:46;9.65;;;3.60;;
49241;SDS011;35079;52.704;13.814;2022-08-02T05:05:12;4.60;;;3.53;;
49241;SDS011;35079;52.704;13.814;2022-08-02T05:07:38;5.75;;;3.50;;
49241;SDS011;35079;52.704;13.814;2022-08-02T05:10:04;5.18;;;3.50;;
49241;SDS011;35079;52.704;13.814;2022-08-02T05:12:30;5.10;;;3.35;;
49241;SDS011;35079;52.704;13.814;2022-08-02T05:14:55;6.13;;;3.20;;
49241;SDS011;35079;52.704;13.814;2022-08-02T05:17:21;6.47;;;3.45;;
49241;SDS011;35079;52.704;13.814;2022-08-02T05:19:47;4.50;;;3.30;;
49241;SDS011;35079;52.704;13.814;2022-08-02T05:22:12;7.10;;;4.00;;
49241;SDS011;35079;52.704;13.814;2022-08-02T05:24:38;6.32;;;3.30;;
49241;SDS011;35079;52.704;13.814;2022-08-02T05:27:04;7.43;;;3.55;;
49241;SDS011;35079;52.704;13.814;2022-08-02T05:29:29;4.78;;;3.40;;
49241;SDS011;35079;52.704;13.814;2022-08-02T05:31:55;5.13;;;3.33;;
49241;SDS011;35079;52.704;13.814;2022-08-02T05:34:21;6.35;;;4.28;;
49241;SDS011;35079;52.704;13.814;2022-08-02T05:36:46;8.73;;;3.60;;
49241;SDS011;35079;52.704;13.814;2022-08-02T05:39:12;5.07;;;3.45;;
49241;SDS011;35079;52.704;13.814;2022-08-02T05:41:38;4.97;;;3.45;;
49241;SDS011;35079;52.704;13.814;2022-08-02T05:44:03;5.25;;;3.80;;
49241;SDS011;35079;52.704;13.814;2022-08-02T05:46:29;6.88;;;3.83;;
49241;SDS011;35079;52.704;13.814;2022-08-02T05:48:55;6.75;;;3.65;;
49241;SDS011;35079;52.704;13.814;2022-08-02T05:51:22;8.63;;;3.55;;
49241;SDS011;35079;52.704;13.814;2022-08-02T05:54:12;5.28;;;3.80;;
49241;SDS011;35079;52.704;13.814;2022-08-02T05:57:00;6.28;;;2.92;;
49241;SDS011;35079;52.704;13.814;2022-08-02T05:59:37;8.68;;;2.63;;
49241;SDS011;35079;52.704;13.814;2022-08-02T06:02:16;5.07;;;2.40;;
49241;SDS011;35079;52.704;13.814;2022-08-02T06:05:38;6.50;;;2.70;;
49241;SDS011;35079;52.704;13.814;2022-08-02T06:07:44;7.60;;;2.40;;
49241;SDS011;35079;52.704;13.814;2022-08-02T06:10:11;6.03;;;2.13;;
49241;SDS011;35079;52.704;13.814;2022-08-02T06:12:53;6.60;;;2.25;;
49241;SDS011;35079;52.704;13.814;2022-08-02T06:15:28;5.57;;;2.00;;
49241;SDS011;35079;52.704;13.814;2022-08-02T06:17:54;5.13;;;2.00;;
49241;SDS011;35079;52.704;13.814;2022-08-02T06:20:22;6.93;;;2.40;;
49241;SDS011;35079;52.704;13.814;2022-08-02T06:22:50;5.03;;;2.03;;
49241;SDS011;35079;52.704;13.814;2022-08-02T06:25:16;5.82;;;1.92;;
49241;SDS011;35079;52.704;13.814;2022-08-02T06:27:43;5.28;;;2.47;;
49241;SDS011;35079;52.704;13.814;2022-08-02T06:30:13;6.18;;;2.40;;
49241;SDS011;35079;52.704;13.814;2022-08-02T06:32:39;11.20;;;2.55;;
49241;SDS011;35079;52.704;13.814;2022-08-02T06:35:05;7.88;;;2.15;;
49241;SDS011;35079;52.704;13.814;2022-08-02T06:37:36;8.30;;;2.17;;
49241;SDS011;35079;52.704;13.814;2022-08-02T06:40:25;5.55;;;1.70;;
49241;SDS011;35079;52.704;13.814;2022-08-02T06:45:38;4.78;;;1.80;;
49241;SDS011;35079;52.704;13.814;2022-08-02T06:48:05;12.05;;;1.90;;
49241;SDS011;35079;52.704;13.814;2022-08-02T06:50:31;8.50;;;2.10;;
49241;SDS011;35079;52.704;13.814;2022-08-02T06:52:57;8.10;;;2.40;;
49241;SDS011;35079;52.704;13.814;2022-08-02T06:55:24;4.85;;;2.00;;
49241;SDS011;35079;52.704;13.814;2022-08-02T06:58:12;6.78;;;2.22;;
49241;SDS011;35079;52.704;13.814;2022-08-02T07:00:38;5.60;;;1.67;;
49241;SDS011;35079;52.704;13.814;2022-08-02T07:03:15;7.40;;;1.58;;
49241;SDS011;35079;52.704;13.814;2022-08-02T07:06:12;6.50;;;1.90;;
49241;SDS011;35079;52.704;13.814;2022-08-02T07:14:18;5.45;;;1.60;;
49241;SDS011;35079;52.704;13.814;2022-08-02T07:16:46;10.48;;;1.67;;
49241;SDS011;35079;52.704;13.814;2022-08-02T07:19:12;7.32;;;2.00;;
49241;SDS011;35079;52.704;13.814;2022-08-02T07:21:40;7.20;;;1.83;;
49241;SDS011;35079;52.704;13.814;2022-08-02T07:24:06;7.88;;;1.55;;
49241;SDS011;35079;52.704;13.814;2022-08-02T07:26:42;6.63;;;1.90;;
49241;SDS011;35079;52.704;13.814;2022-08-02T07:29:07;8.35;;;1.90;;
49241;SDS011;35079;52.704;13.814;2022-08-02T07:31:33;8.98;;;1.60;;
49241;SDS011;35079;52.704;13.814;2022-08-02T07:34:00;6.60;;;2.00;;
49241;SDS011;35079;52.704;13.814;2022-08-02T07:36:25;4.03;;;1.70;;
49241;SDS011;35079;52.704;13.814;2022-08-02T07:38:51;6.38;;;1.58;;
49241;SDS011;35079;52.704;13.814;2022-08-02T07:41:17;5.65;;;1.60;;
49241;SDS011;35079;52.704;13.814;2022-08-02T07:43:42;6.18;;;1.90;;
49241;SDS011;35079;52.704;13.814;2022-08-02T07:46:08;5.80;;;1.60;;
49241;SDS011;35079;52.704;13.814;2022-08-02T07:48:33;6.57;;;1.50;;
49241;SDS011;35079;52.704;13.814;2022-08-02T07:50:59;4.57;;;1.80;;
49241;SDS011;35079;52.704;13.814;2022-08-02T07:53:25;4.72;;;1.60;;
49241;SDS011;35079;52.704;13.814;2022-08-02T07:55:50;5.63;;;1.55;;
49241;SDS011;35079;52.704;13.814;2022-08-02T07:58:16;7.30;;;1.80;;
49241;SDS011;35079;52.704;13.814;2022-08-02T08:00:42;4.60;;;1.70;;
49241;SDS011;35079;52.704;13.814;2022-08-02T08:03:08;5.47;;;1.88;;
49241;SDS011;35079;52.704;13.814;2022-08-02T08:05:33;5.18;;;1.50;;
49241;SDS011;35079;52.704;13.814;2022-08-02T08:08:00;8.32;;;1.83;;
49241;SDS011;35079;52.704;13.814;2022-08-02T08:10:25;5.40;;;1.75;;
49241;SDS011;35079;52.704;13.814;2022-08-02T08:12:51;6.57;;;1.73;;
49241;SDS011;35079;52.704;13.814;2022-08-02T08:15:16;2.90;;;1.50;;
49241;SDS011;35079;52.704;13.814;2022-08-02T08:17:42;9.88;;;2.05;;
49241;SDS011;35079;52.704;13.814;2022-08-02T08:20:08;6.43;;;2.05;;
49241;SDS011;35079;52.704;13.814;2022-08-02T08:22:34;5.88;;;1.77;;
49241;SDS011;35079;52.704;13.814;2022-08-02T08:24:59;6.38;;;1.70;;
49241;SDS011;35079;52.704;13.814;2022-08-02T08:27:25;7.13;;;1.83;;
49241;SDS011;35079;52.704;13.814;2022-08-02T08:29:50;5.28;;;1.45;;
49241;SDS011;35079;52.704;13.814;2022-08-02T08:32:16;3.40;;;1.48;;
49241;SDS011;35079;52.704;13.814;2022-08-02T08:34:43;7.30;;;1.50;;
49241;SDS011;35079;52.704;13.814;2022-08-02T08:37:09;6.15;;;1.50;;
49241;SDS011;35079;52.704;13.814;2022-08-02T08:39:34;5.20;;;1.75;;
49241;SDS011;35079;52.704;13.814;2022-08-02T08:42:01;7.35;;;1.40;;
49241;SDS011;35079;52.704;13.814;2022-08-02T08:44:30;8.10;;;1.83;;
49241;SDS011;35079;52.704;13.814;2022-08-02T08:46:57;5.03;;;1.75;;
49241;SDS011;35079;52.704;13.814;2022-08-02T08:49:25;6.50;;;1.63;;
49241;SDS011;35079;52.704;13.814;2022-08-02T08:51:55;3.72;;;1.58;;
49241;SDS011;35079;52.704;13.814;2022-08-02T08:54:27;6.75;;;1.92;;
49241;SDS011;35079;52.704;13.814;2022-08-02T08:56:54;5.95;;;1.48;;
49241;SDS011;35079;52.704;13.814;2022-08-02T08:59:21;8.45;;;2.08;;
49241;SDS011;35079;52.704;13.814;2022-08-02T09:01:47;7.10;;;1.80;;
49241;SDS011;35079;52.704;13.814;2022-08-02T09:04:14;6.82;;;1.80;;
49241;SDS011;35079;52.704;13.814;2022-08-02T09:06:40;8.32;;;1.60;;
49241;SDS011;35079;52.704;13.814;2022-08-02T09:09:06;5.60;;;1.63;;
49241;SDS011;35079;52.704;13.814;2022-08-02T09:11:32;5.60;;;1.67;;
49241;SDS011;35079;52.704;13.814;2022-08-02T09:13:58;5.78;;;1.70;;
49241;SDS011;35079;52.704;13.814;2022-08-02T09:16:36;4.20;;;1.58;;
49241;SDS011;35079;52.704;13.814;2022-08-02T09:21:49;4.88;;;1.55;;
49241;SDS011;35079;52.704;13.814;2022-08-02T09:26:46;2.88;;;1.25;;
49241;SDS011;35079;52.704;13.814;2022-08-02T09:29:13;3.22;;;1.17;;
49241;SDS011;35079;52.704;13.814;2022-08-02T09:31:39;6.63;;;1.40;;
49241;SDS011;35079;52.704;13.814;2022-08-02T09:34:06;5.90;;;1.30;;
49241;SDS011;35079;52.704;13.814;2022-08-02T09:36:39;4.68;;;1.30;;
49241;SDS011;35079;52.704;13.814;2022-08-02T09:39:11;4.95;;;1.40;;
49241;SDS011;35079;52.704;13.814;2022-08-02T09:41:41;9.93;;;1.50;;
49241;SDS011;35079;52.704;13.814;2022-08-02T09:44:08;4.13;;;1.30;;
49241;SDS011;35079;52.704;13.814;2022-08-02T09:46:40;3.53;;;1.50;;
49241;SDS011;35079;52.704;13.814;2022-08-02T09:49:08;6.03;;;1.27;;
49241;SDS011;35079;52.704;13.814;2022-08-02T09:54:09;3.10;;;1.33;;
49241;SDS011;35079;52.704;13.814;2022-08-02T09:56:45;3.95;;;1.20;;
49241;SDS011;35079;52.704;13.814;2022-08-02T09:59:13;3.88;;;1.50;;
49241;SDS011;35079;52.704;13.814;2022-08-02T10:01:40;4.32;;;1.20;;
49241;SDS011;35079;52.704;13.814;2022-08-02T10:04:08;2.95;;;1.17;;
49241;SDS011;35079;52.704;13.814;2022-08-02T10:06:36;2.13;;;1.08;;
49241;SDS011;35079;52.704;13.814;2022-08-02T10:09:03;3.95;;;1.30;;
49241;SDS011;35079;52.704;13.814;2022-08-02T10:11:33;5.03;;;1.60;;
49241;SDS011;35079;52.704;13.814;2022-08-02T10:14:03;2.95;;;1.40;;
49241;SDS011;35079;52.704;13.814;2022-08-02T10:16:30;3.08;;;1.30;;
49241;SDS011;35079;52.704;13.814;2022-08-02T10:18:58;5.03;;;1.10;;
49241;SDS011;35079;52.704;13.814;2022-08-02T10:24:08;5.88;;;1.33;;
49241;SDS011;35079;52.704;13.814;2022-08-02T10:26:38;3.58;;;1.33;;
49241;SDS011;35079;52.704;13.814;2022-08-02T10:29:10;3.88;;;1.42;;
49241;SDS011;35079;52.704;13.814;2022-08-02T10:34:57;3.60;;;1.15;;
49241;SDS011;35079;52.704;13.814;2022-08-02T10:37:28;4.90;;;1.20;;
49241;SDS011;35079;52.704;13.814;2022-08-02T10:39:57;4.22;;;1.50;;
49241;SDS011;35079;52.704;13.814;2022-08-02T10:45:13;5.85;;;1.55;;
49241;SDS011;35079;52.704;13.814;2022-08-02T10:47:56;2.75;;;1.13;;
49241;SDS011;35079;52.704;13.814;2022-08-02T10:53:28;3.47;;;1.15;;
49241;SDS011;35079;52.704;13.814;2022-08-02T10:55:55;4.57;;;1.20;;
49241;SDS011;35079;52.704;13.814;2022-08-02T10:58:22;2.90;;;1.02;;
49241;SDS011;35079;52.704;13.814;2022-08-02T11:00:50;4.18;;;1.27;;
49241;SDS011;35079;52.704;13.814;2022-08-02T11:08:28;4.00;;;1.30;;
49241;SDS011;35079;52.704;13.814;2022-08-02T11:11:02;3.33;;;1.30;;
49241;SDS011;35079;52.704;13.814;2022-08-02T11:19:20;2.13;;;0.98;;
49241;SDS011;35079;52.704;13.814;2022-08-02T11:22:05;4.45;;;1.42;;
49241;SDS011;35079;52.704;13.814;2022-08-02T11:24:34;2.20;;;1.13;;
49241;SDS011;35079;52.704;13.814;2022-08-02T11:27:05;2.60;;;1.20;;
49241;SDS011;35079;52.704;13.814;2022-08-02T11:31:59;4.22;;;1.30;;
49241;SDS011;35079;52.704;13.814;2022-08-02T11:34:25;3.47;;;1.00;;
49241;SDS011;35079;52.704;13.814;2022-08-02T11:36:52;5.70;;;1.10;;
49241;SDS011;35079;52.704;13.814;2022-08-02T11:39:19;3.55;;;1.13;;
49241;SDS011;35079;52.704;13.814;2022-08-02T11:44:21;5.65;;;1.35;;
49241;SDS011;35079;52.704;13.814;2022-08-02T11:46:57;4.60;;;1.33;;
49241;SDS011;35079;52.704;13.814;2022-08-02T11:49:25;6.18;;;1.70;;
49241;SDS011;35079;52.704;13.814;2022-08-02T11:52:01;3.88;;;1.38;;
49241;SDS011;35079;52.704;13.814;2022-08-02T11:54:36;2.33;;;1.00;;
49241;SDS011;35079;52.704;13.814;2022-08-02T11:57:20;3.45;;;1.00;;
49241;SDS011;35079;52.704;13.814;2022-08-02T11:59:50;6.45;;;1.35;;
49241;SDS011;35079;52.704;13.814;2022-08-02T12:02:18;3.45;;;1.23;;
49241;SDS011;35079;52.704;13.814;2022-08-02T12:04:55;2.55;;;1.20;;
49241;SDS011;35079;52.704;13.814;2022-08-02T12:07:26;3.50;;;1.30;;
49241;SDS011;35079;52.704;13.814;2022-08-02T12:09:59;9.10;;;1.27;;
49241;SDS011;35079;52.704;13.814;2022-08-02T12:12:26;2.97;;;1.23;;
49241;SDS011;35079;52.704;13.814;2022-08-02T12:14:52;5.85;;;1.23;;
49241;SDS011;35079;52.704;13.814;2022-08-02T12:17:27;4.70;;;1.30;;
49241;SDS011;35079;52.704;13.814;2022-08-02T12:20:13;4.30;;;1.38;;
49241;SDS011;35079;52.704;13.814;2022-08-02T12:22:38;3.92;;;1.38;;
49241;SDS011;35079;52.704;13.814;2022-08-02T12:25:17;4.85;;;1.13;;
49241;SDS011;35079;52.704;13.814;2022-08-02T12:27:46;4.22;;;1.20;;
49241;SDS011;35079;52.704;13.814;2022-08-02T12:30:13;4.68;;;1.25;;
49241;SDS011;35079;52.704;13.814;2022-08-02T12:32:41;2.30;;;1.02;;
49241;SDS011;35079;52.704;13.814;2022-08-02T12:35:14;4.75;;;1.25;;
49241;SDS011;35079;52.704;13.814;2022-08-02T12:37:42;3.50;;;1.30;;
49241;SDS011;35079;52.704;13.814;2022-08-02T12:42:47;2.03;;;1.00;;
49241;SDS011;35079;52.704;13.814;2022-08-02T12:45:13;7.88;;;1.50;;
49241;SDS011;35079;52.704;13.814;2022-08-02T12:47:43;2.40;;;1.05;;
49241;SDS011;35079;52.704;13.814;2022-08-02T12:50:26;2.50;;;1.27;;
49241;SDS011;35079;52.704;13.814;2022-08-02T12:53:08;4.43;;;1.30;;
49241;SDS011;35079;52.704;13.814;2022-08-02T12:55:34;5.72;;;1.55;;
49241;SDS011;35079;52.704;13.814;2022-08-02T12:58:04;1.90;;;0.98;;
49241;SDS011;35079;52.704;13.814;2022-08-02T13:00:31;3.33;;;1.08;;
49241;SDS011;35079;52.704;13.814;2022-08-02T13:02:58;3.63;;;1.05;;
49241;SDS011;35079;52.704;13.814;2022-08-02T13:05:25;1.77;;;1.10;;
49241;SDS011;35079;52.704;13.814;2022-08-02T13:07:53;3.63;;;1.23;;
49241;SDS011;35079;52.704;13.814;2022-08-02T13:10:20;4.22;;;1.30;;
49241;SDS011;35079;52.704;13.814;2022-08-02T13:12:46;1.80;;;1.00;;
49241;SDS011;35079;52.704;13.814;2022-08-02T13:15:12;1.95;;;1.20;;
49241;SDS011;35079;52.704;13.814;2022-08-02T13:17:38;2.03;;;1.10;;
49241;SDS011;35079;52.704;13.814;2022-08-02T13:20:04;2.85;;;1.20;;
49241;SDS011;35079;52.704;13.814;2022-08-02T13:22:30;3.58;;;1.20;;
49241;SDS011;35079;52.704;13.814;2022-08-02T13:24:56;3.53;;;1.00;;
49241;SDS011;35079;52.704;13.814;2022-08-02T13:27:22;3.75;;;1.10;;
49241;SDS011;35079;52.704;13.814;2022-08-02T13:29:50;3.15;;;1.20;;
49241;SDS011;35079;52.704;13.814;2022-08-02T13:32:17;2.20;;;1.10;;
49241;SDS011;35079;52.704;13.814;2022-08-02T13:34:43;2.90;;;1.27;;
49241;SDS011;35079;52.704;13.814;2022-08-02T13:37:09;12.02;;;1.70;;
49241;SDS011;35079;52.704;13.814;2022-08-02T13:39:35;2.97;;;1.15;;
49241;SDS011;35079;52.704;13.814;2022-08-02T13:42:00;2.78;;;1.30;;
49241;SDS011;35079;52.704;13.814;2022-08-02T13:44:26;2.50;;;1.30;;
49241;SDS011;35079;52.704;13.814;2022-08-02T13:46:52;3.10;;;1.00;;
49241;SDS011;35079;52.704;13.814;2022-08-02T13:49:17;3.08;;;1.30;;
49241;SDS011;35079;52.704;13.814;2022-08-02T13:51:43;4.47;;;1.05;;
49241;SDS011;35079;52.704;13.814;2022-08-02T13:54:08;3.60;;;1.23;;
49241;SDS011;35079;52.704;13.814;2022-08-02T13:56:34;2.00;;;1.08;;
49241;SDS011;35079;52.704;13.814;2022-08-02T13:59:01;4.53;;;1.20;;
49241;SDS011;35079;52.704;13.814;2022-08-02T14:01:27;2.65;;;1.40;;
49241;SDS011;35079;52.704;13.814;2022-08-02T14:03:52;4.15;;;1.13;;
49241;SDS011;35079;52.704;13.814;2022-08-02T14:06:21;4.15;;;1.38;;
49241;SDS011;35079;52.704;13.814;2022-08-02T14:08:47;3.42;;;1.33;;
49241;SDS011;35079;52.704;13.814;2022-08-02T14:11:13;6.85;;;1.30;;
49241;SDS011;35079;52.704;13.814;2022-08-02T14:13:39;7.15;;;1.50;;
49241;SDS011;35079;52.704;13.814;2022-08-02T14:16:05;2.15;;;1.05;;
49241;SDS011;35079;52.704;13.814;2022-08-02T14:18:30;3.25;;;1.13;;
49241;SDS011;35079;52.704;13.814;2022-08-02T14:20:56;4.45;;;1.25;;
49241;SDS011;35079;52.704;13.814;2022-08-02T14:23:22;3.55;;;1.50;;
49241;SDS011;35079;52.704;13.814;2022-08-02T14:25:47;3.22;;;1.15;;
49241;SDS011;35079;52.704;13.814;2022-08-02T14:28:13;6.22;;;1.23;;
49241;SDS011;35079;52.704;13.814;2022-08-02T14:30:39;5.32;;;1.27;;
49241;SDS011;35079;52.704;13.814;2022-08-02T14:33:04;3.08;;;1.02;;
49241;SDS011;35079;52.704;13.814;2022-08-02T14:35:30;4.35;;;1.10;;
49241;SDS011;35079;52.704;13.814;2022-08-02T14:37:56;2.65;;;1.10;;
49241;SDS011;35079;52.704;13.814;2022-08-02T14:40:22;2.70;;;1.10;;
49241;SDS011;35079;52.704;13.814;2022-08-02T14:42:48;4.85;;;1.08;;
49241;SDS011;35079;52.704;13.814;2022-08-02T14:45:15;2.00;;;1.08;;
49241;SDS011;35079;52.704;13.814;2022-08-02T14:47:42;1.98;;;1.20;;
49241;SDS011;35079;52.704;13.814;2022-08-02T14:50:08;4.75;;;1.40;;
49241;SDS011;35079;52.704;13.814;2022-08-02T14:52:35;3.78;;;1.52;;
49241;SDS011;35079;52.704;13.814;2022-08-02T14:55:01;1.77;;;1.00;;
49241;SDS011;35079;52.704;13.814;2022-08-02T14:57:29;2.67;;;1.00;;
49241;SDS011;35079;52.704;13.814;2022-08-02T14:59:55;2.58;;;1.10;;
49241;SDS011;35079;52.704;13.814;2022-08-02T15:02:24;3.42;;;1.30;;
49241;SDS011;35079;52.704;13.814;2022-08-02T15:04:50;3.08;;;1.23;;
49241;SDS011;35079;52.704;13.814;2022-08-02T15:07:16;2.67;;;1.45;;
49241;SDS011;35079;52.704;13.814;2022-08-02T15:09:42;4.47;;;1.35;;
49241;SDS011;35079;52.704;13.814;2022-08-02T15:12:08;3.88;;;1.20;;
49241;SDS011;35079;52.704;13.814;2022-08-02T15:14:35;4.28;;;1.20;;
49241;SDS011;35079;52.704;13.814;2022-08-02T15:17:01;3.28;;;1.10;;
49241;SDS011;35079;52.704;13.814;2022-08-02T15:19:26;3.72;;;1.30;;
49241;SDS011;35079;52.704;13.814;2022-08-02T15:21:53;4.93;;;1.38;;
49241;SDS011;35079;52.704;13.814;2022-08-02T15:24:18;3.00;;;1.25;;
49241;SDS011;35079;52.704;13.814;2022-08-02T15:26:44;4.97;;;1.48;;
49241;SDS011;35079;52.704;13.814;2022-08-02T15:29:09;1.90;;;1.15;;
49241;SDS011;35079;52.704;13.814;2022-08-02T15:31:35;6.57;;;1.63;;
49241;SDS011;35079;52.704;13.814;2022-08-02T15:34:01;7.07;;;1.73;;
49241;SDS011;35079;52.704;13.814;2022-08-02T15:36:26;5.47;;;1.33;;
49241;SDS011;35079;52.704;13.814;2022-08-02T15:38:52;5.22;;;1.30;;
49241;SDS011;35079;52.704;13.814;2022-08-02T15:41:17;4.32;;;1.35;;
49241;SDS011;35079;52.704;13.814;2022-08-02T15:43:43;4.70;;;1.15;;
49241;SDS011;35079;52.704;13.814;2022-08-02T15:46:09;2.40;;;1.33;;
49241;SDS011;35079;52.704;13.814;2022-08-02T15:48:34;1.85;;;1.25;;
49241;SDS011;35079;52.704;13.814;2022-08-02T15:51:00;3.08;;;1.33;;
49241;SDS011;35079;52.704;13.814;2022-08-02T15:53:26;3.38;;;1.30;;
49241;SDS011;35079;52.704;13.814;2022-08-02T15:55:51;2.38;;;1.00;;
49241;SDS011;35079;52.704;13.814;2022-08-02T15:58:18;3.28;;;1.30;;
49241;SDS011;35079;52.704;13.814;2022-08-02T16:00:44;3.95;;;1.27;;
49241;SDS011;35079;52.704;13.814;2022-08-02T16:03:09;4.10;;;1.70;;
49241;SDS011;35079;52.704;13.814;2022-08-02T16:05:35;3.53;;;1.25;;
49241;SDS011;35079;52.704;13.814;2022-08-02T16:08:00;4.05;;;1.25;;
49241;SDS011;35079;52.704;13.814;2022-08-02T16:10:26;5.05;;;1.55;;
49241;SDS011;35079;52.704;13.814;2022-08-02T16:12:52;2.10;;;1.20;;
49241;SDS011;35079;52.704;13.814;2022-08-02T16:15:17;2.00;;;1.23;;
49241;SDS011;35079;52.704;13.814;2022-08-02T16:17:43;3.47;;;1.17;;
49241;SDS011;35079;52.704;13.814;2022-08-02T16:20:09;4.38;;;1.20;;
49241;SDS011;35079;52.704;13.814;2022-08-02T16:22:34;4.68;;;1.13;;
49241;SDS011;35079;52.704;13.814;2022-08-02T16:25:02;4.13;;;1.20;;
49241;SDS011;35079;52.704;13.814;2022-08-02T16:27:28;2.70;;;1.30;;
49241;SDS011;35079;52.704;13.814;2022-08-02T16:29:54;3.53;;;1.17;;
49241;SDS011;35079;52.704;13.814;2022-08-02T16:32:20;3.10;;;1.25;;
49241;SDS011;35079;52.704;13.814;2022-08-02T16:34:48;2.25;;;1.08;;
49241;SDS011;35079;52.704;13.814;2022-08-02T16:37:13;1.60;;;1.20;;
49241;SDS011;35079;52.704;13.814;2022-08-02T16:39:39;2.25;;;1.17;;
49241;SDS011;35079;52.704;13.814;2022-08-02T16:42:04;2.83;;;1.38;;
49241;SDS011;35079;52.704;13.814;2022-08-02T16:44:30;2.63;;;1.20;;
49241;SDS011;35079;52.704;13.814;2022-08-02T16:46:57;5.15;;;1.40;;
49241;SDS011;35079;52.704;13.814;2022-08-02T16:49:23;3.35;;;1.48;;
49241;SDS011;35079;52.704;13.814;2022-08-02T16:51:48;2.78;;;1.10;;
49241;SDS011;35079;52.704;13.814;2022-08-02T16:54:17;3.47;;;1.05;;
49241;SDS011;35079;52.704;13.814;2022-08-02T16:56:42;5.05;;;1.08;;
49241;SDS011;35079;52.704;13.814;2022-08-02T16:59:08;3.42;;;1.23;;
49241;SDS011;35079;52.704;13.814;2022-08-02T17:01:36;7.50;;;1.35;;
49241;SDS011;35079;52.704;13.814;2022-08-02T17:04:02;5.25;;;1.40;;
49241;SDS011;35079;52.704;13.814;2022-08-02T17:06:28;5.55;;;1.50;;
49241;SDS011;35079;52.704;13.814;2022-08-02T17:08:53;5.03;;;1.10;;
49241;SDS011;35079;52.704;13.814;2022-08-02T17:11:20;6.70;;;1.55;;
49241;SDS011;35079;52.704;13.814;2022-08-02T17:13:46;6.57;;;1.20;;
49241;SDS011;35079;52.704;13.814;2022-08-02T17:16:12;3.53;;;1.13;;
49241;SDS011;35079;52.704;13.814;2022-08-02T17:18:37;3.53;;;1.67;;
49241;SDS011;35079;52.704;13.814;2022-08-02T17:21:03;3.50;;;1.15;;
49241;SDS011;35079;52.704;13.814;2022-08-02T17:23:29;3.53;;;1.30;;
49241;SDS011;35079;52.704;13.814;2022-08-02T17:25:55;4.07;;;1.15;;
49241;SDS011;35079;52.704;13.814;2022-08-02T17:28:21;2.90;;;1.33;;
49241;SDS011;35079;52.704;13.814;2022-08-02T17:30:47;4.85;;;1.30;;
49241;SDS011;35079;52.704;13.814;2022-08-02T17:33:12;2.55;;;1.20;;
49241;SDS011;35079;52.704;13.814;2022-08-02T17:35:38;7.50;;;1.83;;
49241;SDS011;35079;52.704;13.814;2022-08-02T17:38:03;3.72;;;1.40;;
49241;SDS011;35079;52.704;13.814;2022-08-02T17:40:29;4.80;;;1.17;;
49241;SDS011;35079;52.704;13.814;2022-08-02T17:42:57;4.32;;;1.30;;
49241;SDS011;35079;52.704;13.814;2022-08-02T17:45:22;4.95;;;1.42;;
49241;SDS011;35079;52.704;13.814;2022-08-02T17:47:48;3.35;;;1.23;;
49241;SDS011;35079;52.704;13.814;2022-08-02T17:50:15;4.38;;;1.27;;
49241;SDS011;35079;52.704;13.814;2022-08-02T17:52:40;5.72;;;1.80;;
49241;SDS011;35079;52.704;13.814;2022-08-02T17:55:06;7.53;;;1.50;;
49241;SDS011;35079;52.704;13.814;2022-08-02T17:57:34;5.70;;;1.30;;
49241;SDS011;35079;52.704;13.814;2022-08-02T18:00:00;7.45;;;1.65;;
49241;SDS011;35079;52.704;13.814;2022-08-02T18:02:26;4.43;;;1.60;;
49241;SDS011;35079;52.704;13.814;2022-08-02T18:04:52;2.92;;;1.23;;
49241;SDS011;35079;52.704;13.814;2022-08-02T18:07:18;2.25;;;1.30;;
49241;SDS011;35079;52.704;13.814;2022-08-02T18:09:44;4.38;;;1.48;;
49241;SDS011;35079;52.704;13.814;2022-08-02T18:12:11;3.25;;;1.17;;
49241;SDS011;35079;52.704;13.814;2022-08-02T18:14:37;8.90;;;1.83;;
49241;SDS011;35079;52.704;13.814;2022-08-02T18:17:04;2.83;;;1.40;;
49241;SDS011;35079;52.704;13.814;2022-08-02T18:19:30;3.33;;;1.20;;
49241;SDS011;35079;52.704;13.814;2022-08-02T18:21:56;4.38;;;1.73;;
49241;SDS011;35079;52.704;13.814;2022-08-02T18:24:22;5.95;;;1.70;;
49241;SDS011;35079;52.704;13.814;2022-08-02T18:26:47;4.03;;;1.30;;
49241;SDS011;35079;52.704;13.814;2022-08-02T18:29:14;5.15;;;1.45;;
49241;SDS011;35079;52.704;13.814;2022-08-02T18:31:39;2.88;;;1.17;;
49241;SDS011;35079;52.704;13.814;2022-08-02T18:34:05;5.45;;;1.52;;
49241;SDS011;35079;52.704;13.814;2022-08-02T18:36:31;4.53;;;1.70;;
49241;SDS011;35079;52.704;13.814;2022-08-02T18:39:00;3.95;;;1.48;;
49241;SDS011;35079;52.704;13.814;2022-08-02T18:41:27;3.78;;;1.30;;
49241;SDS011;35079;52.704;13.814;2022-08-02T18:43:53;5.38;;;1.60;;
49241;SDS011;35079;52.704;13.814;2022-08-02T18:46:19;3.08;;;1.60;;
49241;SDS011;35079;52.704;13.814;2022-08-02T18:48:47;6.90;;;1.60;;
49241;SDS011;35079;52.704;13.814;2022-08-02T18:51:14;4.40;;;1.52;;
49241;SDS011;35079;52.704;13.814;2022-08-02T18:53:40;3.72;;;1.63;;
49241;SDS011;35079;52.704;13.814;2022-08-02T18:56:07;2.70;;;1.30;;
49241;SDS011;35079;52.704;13.814;2022-08-02T18:58:35;4.57;;;1.60;;
49241;SDS011;35079;52.704;13.814;2022-08-02T19:01:00;4.05;;;1.70;;
49241;SDS011;35079;52.704;13.814;2022-08-02T19:03:26;3.35;;;1.60;;
49241;SDS011;35079;52.704;13.814;2022-08-02T19:05:52;3.58;;;1.50;;
49241;SDS011;35079;52.704;13.814;2022-08-02T19:08:26;3.63;;;1.67;;
49241;SDS011;35079;52.704;13.814;2022-08-02T19:13:18;7.05;;;1.80;;
49241;SDS011;35079;52.704;13.814;2022-08-02T19:15:44;2.42;;;1.73;;
49241;SDS011;35079;52.704;13.814;2022-08-02T19:18:10;7.18;;;1.67;;
49241;SDS011;35079;52.704;13.814;2022-08-02T19:20:36;4.38;;;1.50;;
49241;SDS011;35079;52.704;13.814;2022-08-02T19:23:05;3.33;;;1.52;;
49241;SDS011;35079;52.704;13.814;2022-08-02T19:25:33;3.67;;;1.60;;
49241;SDS011;35079;52.704;13.814;2022-08-02T19:28:00;4.38;;;1.70;;
49241;SDS011;35079;52.704;13.814;2022-08-02T19:30:27;3.85;;;1.83;;
49241;SDS011;35079;52.704;13.814;2022-08-02T19:33:12;6.45;;;1.50;;
49241;SDS011;35079;52.704;13.814;2022-08-02T19:35:38;5.70;;;1.77;;
49241;SDS011;35079;52.704;13.814;2022-08-02T19:38:41;3.42;;;1.30;;
49241;SDS011;35079;52.704;13.814;2022-08-02T19:41:07;5.90;;;1.75;;